sensor_id;sensor_type;location;lat;lon;timestamp;temperature;humidity
27870;DHT22;15225;50.730;4.244;2023-10-13T00:00:14;20.80;1.00
27870;DHT22;15225;50.730;4.244;2023-10-13T00:02:51;20.70;1.00
27870;DHT22;15225;50.730;4.244;2023-10-13T00:05:20;20.80;1.00
27870;DHT22;15225;50.730;4.244;2023-10-13T00:07:46;20.80;1.00
27870;DHT22;15225;50.730;4.244;2023-10-13T00:10:12;20.80;1.00
27870;DHT22;15225;50.730;4.244;2023-10-13T00:12:38;20.80;1.00
27870;DHT22;15225;50.730;4.244;2023-10-13T00:15:04;20.80;1.00
27870;DHT22;15225;50.730;4.244;2023-10-13T00:17:32;20.90;1.00
27870;DHT22;15225;50.730;4.244;2023-10-13T00:19:58;21.00;1.00
27870;DHT22;15225;50.730;4.244;2023-10-13T00:22:25;21.20;99.90
27870;DHT22;15225;50.730;4.244;2023-10-13T00:24:53;21.00;1.00
27870;DHT22;15225;50.730;4.244;2023-10-13T00:27:24;21.00;1.00
27870;DHT22;15225;50.730;4.244;2023-10-13T00:30:03;21.10;99.90
27870;DHT22;15225;50.730;4.244;2023-10-13T00:32:49;21.00;1.00
27870;DHT22;15225;50.730;4.244;2023-10-13T00:35:29;21.00;1.00
27870;DHT22;15225;50.730;4.244;2023-10-13T00:38:01;21.00;1.00
27870;DHT22;15225;50.730;4.244;2023-10-13T00:40:31;21.10;1.00
27870;DHT22;15225;50.730;4.244;2023-10-13T00:42:58;21.10;1.00
27870;DHT22;15225;50.730;4.244;2023-10-13T00:45:43;21.20;1.00
27870;DHT22;15225;50.730;4.244;2023-10-13T00:48:10;21.10;1.00
27870;DHT22;15225;50.730;4.244;2023-10-13T00:50:40;21.10;1.00
27870;DHT22;15225;50.730;4.244;2023-10-13T00:53:07;21.10;1.00
27870;DHT22;15225;50.730;4.244;2023-10-13T00:55:34;21.10;99.90
27870;DHT22;15225;50.730;4.244;2023-10-13T00:58:00;21.10;99.90
27870;DHT22;15225;50.730;4.244;2023-10-13T01:00:29;21.10;1.00
27870;DHT22;15225;50.730;4.244;2023-10-13T01:02:56;21.00;1.00
27870;DHT22;15225;50.730;4.244;2023-10-13T01:05:25;21.00;1.00
27870;DHT22;15225;50.730;4.244;2023-10-13T01:07:51;21.10;99.90
27870;DHT22;15225;50.730;4.244;2023-10-13T01:10:21;21.00;1.00
27870;DHT22;15225;50.730;4.244;2023-10-13T01:12:52;21.00;1.00
27870;DHT22;15225;50.730;4.244;2023-10-13T01:15:21;21.00;1.00
27870;DHT22;15225;50.730;4.244;2023-10-13T01:17:48;21.10;1.00
27870;DHT22;15225;50.730;4.244;2023-10-13T01:20:14;21.10;1.00
27870;DHT22;15225;50.730;4.244;2023-10-13T01:22:51;20.90;1.00
27870;DHT22;15225;50.730;4.244;2023-10-13T01:25:24;21.00;1.00
27870;DHT22;15225;50.730;4.244;2023-10-13T01:27:53;21.00;1.00
27870;DHT22;15225;50.730;4.244;2023-10-13T01:30:19;21.20;99.90
27870;DHT22;15225;50.730;4.244;2023-10-13T01:32:49;21.20;99.90
27870;DHT22;15225;50.730;4.244;2023-10-13T01:35:17;21.20;99.90
27870;DHT22;15225;50.730;4.244;2023-10-13T01:37:45;21.20;99.90
27870;DHT22;15225;50.730;4.244;2023-10-13T01:40:11;20.90;1.00
27870;DHT22;15225;50.730;4.244;2023-10-13T01:42:46;20.90;1.00
27870;DHT22;15225;50.730;4.244;2023-10-13T01:45:12;20.90;1.00
27870;DHT22;15225;50.730;4.244;2023-10-13T01:47:41;20.80;1.00
27870;DHT22;15225;50.730;4.244;2023-10-13T01:50:10;21.00;99.90
27870;DHT22;15225;50.730;4.244;2023-10-13T01:52:44;21.00;99.90
27870;DHT22;15225;50.730;4.244;2023-10-13T01:55:10;20.80;1.00
27870;DHT22;15225;50.730;4.244;2023-10-13T01:57:37;20.70;1.00
27870;DHT22;15225;50.730;4.244;2023-10-13T02:00:03;20.70;1.00
27870;DHT22;15225;50.730;4.244;2023-10-13T02:02:44;20.80;1.00
27870;DHT22;15225;50.730;4.244;2023-10-13T02:05:11;20.70;1.00
27870;DHT22;15225;50.730;4.244;2023-10-13T02:07:37;20.60;1.00
27870;DHT22;15225;50.730;4.244;2023-10-13T02:10:04;20.70;1.00
27870;DHT22;15225;50.730;4.244;2023-10-13T02:12:31;20.80;1.00
27870;DHT22;15225;50.730;4.244;2023-10-13T02:15:13;20.80;1.00
27870;DHT22;15225;50.730;4.244;2023-10-13T02:17:53;20.70;1.00
27870;DHT22;15225;50.730;4.244;2023-10-13T02:20:20;20.60;1.00
27870;DHT22;15225;50.730;4.244;2023-10-13T02:22:51;20.60;1.00
27870;DHT22;15225;50.730;4.244;2023-10-13T02:25:17;20.60;1.00
27870;DHT22;15225;50.730;4.244;2023-10-13T02:28:00;20.60;1.00
27870;DHT22;15225;50.730;4.244;2023-10-13T02:30:26;20.50;1.00
27870;DHT22;15225;50.730;4.244;2023-10-13T02:32:56;20.70;1.00
27870;DHT22;15225;50.730;4.244;2023-10-13T02:35:22;20.70;1.00
27870;DHT22;15225;50.730;4.244;2023-10-13T02:37:55;20.60;1.00
27870;DHT22;15225;50.730;4.244;2023-10-13T02:40:23;20.60;1.00
27870;DHT22;15225;50.730;4.244;2023-10-13T02:42:49;20.70;1.00
27870;DHT22;15225;50.730;4.244;2023-10-13T02:45:15;20.70;1.00
27870;DHT22;15225;50.730;4.244;2023-10-13T02:47:41;20.80;1.00
27870;DHT22;15225;50.730;4.244;2023-10-13T02:50:09;20.90;1.00
27870;DHT22;15225;50.730;4.244;2023-10-13T02:52:38;20.80;1.00
27870;DHT22;15225;50.730;4.244;2023-10-13T02:55:07;21.00;1.00
27870;DHT22;15225;50.730;4.244;2023-10-13T02:57:39;21.10;1.00
27870;DHT22;15225;50.730;4.244;2023-10-13T03:00:08;20.80;1.00
27870;DHT22;15225;50.730;4.244;2023-10-13T03:02:41;20.70;1.00
27870;DHT22;15225;50.730;4.244;2023-10-13T03:05:12;20.70;1.00
27870;DHT22;15225;50.730;4.244;2023-10-13T03:07:39;20.80;1.00
27870;DHT22;15225;50.730;4.244;2023-10-13T03:10:10;20.70;1.00
27870;DHT22;15225;50.730;4.244;2023-10-13T03:12:39;20.70;1.00
27870;DHT22;15225;50.730;4.244;2023-10-13T03:15:06;20.70;1.00
27870;DHT22;15225;50.730;4.244;2023-10-13T03:17:42;20.60;1.00
27870;DHT22;15225;50.730;4.244;2023-10-13T03:20:16;20.50;1.00
27870;DHT22;15225;50.730;4.244;2023-10-13T03:22:48;20.40;1.00
27870;DHT22;15225;50.730;4.244;2023-10-13T03:25:18;20.40;1.00
27870;DHT22;15225;50.730;4.244;2023-10-13T03:27:50;20.50;1.00
27870;DHT22;15225;50.730;4.244;2023-10-13T03:30:17;20.50;1.00
27870;DHT22;15225;50.730;4.244;2023-10-13T03:32:43;20.30;1.00
27870;DHT22;15225;50.730;4.244;2023-10-13T03:35:12;20.50;1.00
27870;DHT22;15225;50.730;4.244;2023-10-13T03:37:54;20.20;1.00
27870;DHT22;15225;50.730;4.244;2023-10-13T03:40:20;20.30;1.00
27870;DHT22;15225;50.730;4.244;2023-10-13T03:45:33;20.40;1.00
27870;DHT22;15225;50.730;4.244;2023-10-13T03:48:06;20.50;1.00
27870;DHT22;15225;50.730;4.244;2023-10-13T03:50:36;20.50;1.00
27870;DHT22;15225;50.730;4.244;2023-10-13T03:53:02;20.50;1.00
27870;DHT22;15225;50.730;4.244;2023-10-13T03:55:29;20.40;1.00
27870;DHT22;15225;50.730;4.244;2023-10-13T03:57:58;20.40;1.00
27870;DHT22;15225;50.730;4.244;2023-10-13T04:00:25;20.30;1.00
27870;DHT22;15225;50.730;4.244;2023-10-13T04:02:53;20.20;1.00
27870;DHT22;15225;50.730;4.244;2023-10-13T04:05:29;20.30;1.00
27870;DHT22;15225;50.730;4.244;2023-10-13T04:08:15;20.30;1.00
27870;DHT22;15225;50.730;4.244;2023-10-13T04:10:54;20.20;1.00
27870;DHT22;15225;50.730;4.244;2023-10-13T04:13:20;20.20;1.00
27870;DHT22;15225;50.730;4.244;2023-10-13T04:16:08;20.30;1.00
27870;DHT22;15225;50.730;4.244;2023-10-13T04:18:49;20.40;1.00
27870;DHT22;15225;50.730;4.244;2023-10-13T04:21:24;20.30;1.00
27870;DHT22;15225;50.730;4.244;2023-10-13T04:24:22;20.40;1.00
27870;DHT22;15225;50.730;4.244;2023-10-13T04:26:53;20.40;1.00
27870;DHT22;15225;50.730;4.244;2023-10-13T04:29:45;20.40;1.00
27870;DHT22;15225;50.730;4.244;2023-10-13T04:32:31;20.40;1.00
27870;DHT22;15225;50.730;4.244;2023-10-13T04:35:13;20.50;1.00
27870;DHT22;15225;50.730;4.244;2023-10-13T04:37:39;20.50;1.00
27870;DHT22;15225;50.730;4.244;2023-10-13T04:40:24;20.50;1.00
27870;DHT22;15225;50.730;4.244;2023-10-13T04:42:53;20.50;1.00
27870;DHT22;15225;50.730;4.244;2023-10-13T04:45:22;20.70;1.00
27870;DHT22;15225;50.730;4.244;2023-10-13T04:48:13;20.70;1.00
27870;DHT22;15225;50.730;4.244;2023-10-13T04:50:45;20.50;1.00
27870;DHT22;15225;50.730;4.244;2023-10-13T04:53:16;20.50;1.00
27870;DHT22;15225;50.730;4.244;2023-10-13T04:56:20;20.60;1.00
27870;DHT22;15225;50.730;4.244;2023-10-13T04:59:05;20.40;1.00
27870;DHT22;15225;50.730;4.244;2023-10-13T05:01:49;20.40;1.00
27870;DHT22;15225;50.730;4.244;2023-10-13T05:04:34;20.00;1.00
27870;DHT22;15225;50.730;4.244;2023-10-13T05:07:25;20.20;1.00
27870;DHT22;15225;50.730;4.244;2023-10-13T05:10:09;20.20;1.00
27870;DHT22;15225;50.730;4.244;2023-10-13T05:12:54;20.30;1.00
27870;DHT22;15225;50.730;4.244;2023-10-13T05:15:47;20.20;1.00
27870;DHT22;15225;50.730;4.244;2023-10-13T05:18:31;20.10;1.00
27870;DHT22;15225;50.730;4.244;2023-10-13T05:21:16;20.20;1.00
27870;DHT22;15225;50.730;4.244;2023-10-13T05:24:01;20.10;1.00
27870;DHT22;15225;50.730;4.244;2023-10-13T05:26:45;20.20;1.00
27870;DHT22;15225;50.730;4.244;2023-10-13T05:29:29;20.30;1.00
27870;DHT22;15225;50.730;4.244;2023-10-13T05:32:14;20.50;1.00
27870;DHT22;15225;50.730;4.244;2023-10-13T05:34:58;20.60;1.00
27870;DHT22;15225;50.730;4.244;2023-10-13T05:37:47;20.60;1.00
27870;DHT22;15225;50.730;4.244;2023-10-13T05:40:31;20.60;1.00
27870;DHT22;15225;50.730;4.244;2023-10-13T05:43:16;20.70;1.00
27870;DHT22;15225;50.730;4.244;2023-10-13T05:46:04;20.60;1.00
27870;DHT22;15225;50.730;4.244;2023-10-13T05:49:02;20.40;1.00
27870;DHT22;15225;50.730;4.244;2023-10-13T05:51:32;20.30;1.00
27870;DHT22;15225;50.730;4.244;2023-10-13T05:54:01;20.30;1.00
27870;DHT22;15225;50.730;4.244;2023-10-13T05:56:43;20.30;1.00
27870;DHT22;15225;50.730;4.244;2023-10-13T05:59:44;20.50;1.00
27870;DHT22;15225;50.730;4.244;2023-10-13T06:02:28;20.50;1.00
27870;DHT22;15225;50.730;4.244;2023-10-13T06:05:13;20.40;1.00
27870;DHT22;15225;50.730;4.244;2023-10-13T06:07:58;20.50;1.00
27870;DHT22;15225;50.730;4.244;2023-10-13T06:10:43;20.50;1.00
27870;DHT22;15225;50.730;4.244;2023-10-13T06:13:27;20.60;1.00
27870;DHT22;15225;50.730;4.244;2023-10-13T06:16:13;20.60;1.00
27870;DHT22;15225;50.730;4.244;2023-10-13T06:18:58;20.70;1.00
27870;DHT22;15225;50.730;4.244;2023-10-13T06:21:44;20.50;1.00
27870;DHT22;15225;50.730;4.244;2023-10-13T06:24:28;20.70;99.90
27870;DHT22;15225;50.730;4.244;2023-10-13T06:27:14;20.80;99.90
27870;DHT22;15225;50.730;4.244;2023-10-13T06:29:58;21.00;99.90
27870;DHT22;15225;50.730;4.244;2023-10-13T06:32:26;20.90;99.90
27870;DHT22;15225;50.730;4.244;2023-10-13T06:34:53;20.80;99.90
27870;DHT22;15225;50.730;4.244;2023-10-13T06:37:24;20.80;99.90
27870;DHT22;15225;50.730;4.244;2023-10-13T06:40:00;20.80;99.90
27870;DHT22;15225;50.730;4.244;2023-10-13T06:42:33;20.80;99.90
27870;DHT22;15225;50.730;4.244;2023-10-13T06:45:08;21.00;99.90
27870;DHT22;15225;50.730;4.244;2023-10-13T06:47:35;21.00;99.90
27870;DHT22;15225;50.730;4.244;2023-10-13T06:50:12;21.00;99.90
27870;DHT22;15225;50.730;4.244;2023-10-13T06:52:45;20.90;99.90
27870;DHT22;15225;50.730;4.244;2023-10-13T06:55:12;20.90;99.90
27870;DHT22;15225;50.730;4.244;2023-10-13T06:57:49;20.90;99.90
27870;DHT22;15225;50.730;4.244;2023-10-13T07:00:18;21.00;91.30
27870;DHT22;15225;50.730;4.244;2023-10-13T07:03:00;21.10;1.00
27870;DHT22;15225;50.730;4.244;2023-10-13T07:05:43;21.00;1.00
27870;DHT22;15225;50.730;4.244;2023-10-13T07:08:29;21.00;1.00
27870;DHT22;15225;50.730;4.244;2023-10-13T07:10:56;21.00;1.00
27870;DHT22;15225;50.730;4.244;2023-10-13T07:13:29;21.10;99.90
27870;DHT22;15225;50.730;4.244;2023-10-13T07:15:55;21.10;99.90
27870;DHT22;15225;50.730;4.244;2023-10-13T07:18:25;21.00;99.90
27870;DHT22;15225;50.730;4.244;2023-10-13T07:20:51;21.00;99.90
27870;DHT22;15225;50.730;4.244;2023-10-13T07:23:23;21.10;99.90
27870;DHT22;15225;50.730;4.244;2023-10-13T07:25:55;21.10;99.90
27870;DHT22;15225;50.730;4.244;2023-10-13T07:28:23;21.20;99.90
27870;DHT22;15225;50.730;4.244;2023-10-13T07:30:48;21.30;1.00
27870;DHT22;15225;50.730;4.244;2023-10-13T07:33:35;21.40;99.90
27870;DHT22;15225;50.730;4.244;2023-10-13T07:36:02;21.30;99.90
27870;DHT22;15225;50.730;4.244;2023-10-13T07:38:39;21.40;99.90
27870;DHT22;15225;50.730;4.244;2023-10-13T07:41:08;21.50;1.00
27870;DHT22;15225;50.730;4.244;2023-10-13T07:43:35;21.60;99.90
27870;DHT22;15225;50.730;4.244;2023-10-13T07:46:03;21.60;99.90
27870;DHT22;15225;50.730;4.244;2023-10-13T07:48:36;21.70;99.90
27870;DHT22;15225;50.730;4.244;2023-10-13T07:51:05;21.80;99.90
27870;DHT22;15225;50.730;4.244;2023-10-13T07:53:40;22.00;99.90
27870;DHT22;15225;50.730;4.244;2023-10-13T07:56:07;22.00;99.90
27870;DHT22;15225;50.730;4.244;2023-10-13T07:58:40;21.90;1.00
27870;DHT22;15225;50.730;4.244;2023-10-13T08:01:21;21.90;1.00
27870;DHT22;15225;50.730;4.244;2023-10-13T08:03:47;22.00;99.90
27870;DHT22;15225;50.730;4.244;2023-10-13T08:06:22;22.10;82.70
27870;DHT22;15225;50.730;4.244;2023-10-13T08:08:54;22.00;99.90
27870;DHT22;15225;50.730;4.244;2023-10-13T08:11:20;21.90;1.00
27870;DHT22;15225;50.730;4.244;2023-10-13T08:13:59;21.80;99.90
27870;DHT22;15225;50.730;4.244;2023-10-13T08:16:26;21.90;99.90
27870;DHT22;15225;50.730;4.244;2023-10-13T08:19:12;22.10;99.90
27870;DHT22;15225;50.730;4.244;2023-10-13T08:21:41;22.10;99.90
27870;DHT22;15225;50.730;4.244;2023-10-13T08:24:15;22.10;1.00
27870;DHT22;15225;50.730;4.244;2023-10-13T08:26:41;22.00;99.90
27870;DHT22;15225;50.730;4.244;2023-10-13T08:29:43;21.90;1.00
27870;DHT22;15225;50.730;4.244;2023-10-13T08:32:25;21.80;99.90
27870;DHT22;15225;50.730;4.244;2023-10-13T08:34:55;21.80;99.90
27870;DHT22;15225;50.730;4.244;2023-10-13T08:37:21;21.70;99.90
27870;DHT22;15225;50.730;4.244;2023-10-13T08:39:55;21.60;1.00
27870;DHT22;15225;50.730;4.244;2023-10-13T08:45:10;22.00;99.90
27870;DHT22;15225;50.730;4.244;2023-10-13T08:47:56;21.90;20.00
27870;DHT22;15225;50.730;4.244;2023-10-13T08:50:44;22.10;99.90
27870;DHT22;15225;50.730;4.244;2023-10-13T08:53:19;22.10;99.90
27870;DHT22;15225;50.730;4.244;2023-10-13T08:56:05;22.30;88.60
27870;DHT22;15225;50.730;4.244;2023-10-13T08:58:47;22.30;1.00
27870;DHT22;15225;50.730;4.244;2023-10-13T09:01:20;22.10;99.90
27870;DHT22;15225;50.730;4.244;2023-10-13T09:04:15;22.10;99.90
27870;DHT22;15225;50.730;4.244;2023-10-13T09:07:03;22.10;99.90
27870;DHT22;15225;50.730;4.244;2023-10-13T09:09:49;22.40;1.00
27870;DHT22;15225;50.730;4.244;2023-10-13T09:17:50;22.40;1.00
27870;DHT22;15225;50.730;4.244;2023-10-13T09:20:16;22.20;1.00
27870;DHT22;15225;50.730;4.244;2023-10-13T09:22:52;22.20;20.40
27870;DHT22;15225;50.730;4.244;2023-10-13T09:25:31;22.10;85.10
27870;DHT22;15225;50.730;4.244;2023-10-13T09:27:58;22.10;1.00
27870;DHT22;15225;50.730;4.244;2023-10-13T09:30:26;22.10;22.10
27870;DHT22;15225;50.730;4.244;2023-10-13T09:33:04;22.00;99.90
27870;DHT22;15225;50.730;4.244;2023-10-13T09:35:31;22.00;99.10
27870;DHT22;15225;50.730;4.244;2023-10-13T09:38:03;22.10;1.00
27870;DHT22;15225;50.730;4.244;2023-10-13T09:40:30;22.20;34.20
27870;DHT22;15225;50.730;4.244;2023-10-13T09:43:12;22.40;1.00
27870;DHT22;15225;50.730;4.244;2023-10-13T09:45:41;22.60;99.90
27870;DHT22;15225;50.730;4.244;2023-10-13T09:48:32;22.60;99.90
27870;DHT22;15225;50.730;4.244;2023-10-13T09:51:03;22.60;99.90
27870;DHT22;15225;50.730;4.244;2023-10-13T09:53:35;22.70;99.90
27870;DHT22;15225;50.730;4.244;2023-10-13T09:56:12;22.80;99.90
27870;DHT22;15225;50.730;4.244;2023-10-13T09:59:14;23.00;1.00
27870;DHT22;15225;50.730;4.244;2023-10-13T10:01:43;23.20;99.90
27870;DHT22;15225;50.730;4.244;2023-10-13T10:04:23;23.20;1.00
27870;DHT22;15225;50.730;4.244;2023-10-13T10:06:54;23.40;99.90
27870;DHT22;15225;50.730;4.244;2023-10-13T10:09:30;23.50;99.90
27870;DHT22;15225;50.730;4.244;2023-10-13T10:12:24;23.50;99.90
27870;DHT22;15225;50.730;4.244;2023-10-13T10:17:56;23.60;99.90
27870;DHT22;15225;50.730;4.244;2023-10-13T10:20:29;23.70;99.90
27870;DHT22;15225;50.730;4.244;2023-10-13T10:23:08;23.70;99.90
27870;DHT22;15225;50.730;4.244;2023-10-13T10:25:49;23.90;99.90
27870;DHT22;15225;50.730;4.244;2023-10-13T10:28:17;24.00;99.90
27870;DHT22;15225;50.730;4.244;2023-10-13T10:30:44;24.00;99.90
27870;DHT22;15225;50.730;4.244;2023-10-13T10:33:11;23.70;99.90
27870;DHT22;15225;50.730;4.244;2023-10-13T10:35:59;23.50;99.90
27870;DHT22;15225;50.730;4.244;2023-10-13T10:38:25;23.60;99.90
27870;DHT22;15225;50.730;4.244;2023-10-13T10:40:58;23.60;99.90
27870;DHT22;15225;50.730;4.244;2023-10-13T10:43:28;23.80;74.70
27870;DHT22;15225;50.730;4.244;2023-10-13T10:46:41;24.00;1.00
27870;DHT22;15225;50.730;4.244;2023-10-13T10:49:05;24.30;1.00
27870;DHT22;15225;50.730;4.244;2023-10-13T10:51:39;24.90;99.90
27870;DHT22;15225;50.730;4.244;2023-10-13T10:54:18;25.10;99.90
27870;DHT22;15225;50.730;4.244;2023-10-13T10:56:46;25.30;99.90
27870;DHT22;15225;50.730;4.244;2023-10-13T10:59:18;25.20;99.90
27870;DHT22;15225;50.730;4.244;2023-10-13T11:01:46;25.00;99.90
27870;DHT22;15225;50.730;4.244;2023-10-13T11:04:18;24.80;99.90
27870;DHT22;15225;50.730;4.244;2023-10-13T11:06:51;24.80;99.90
27870;DHT22;15225;50.730;4.244;2023-10-13T11:09:27;24.80;99.90
27870;DHT22;15225;50.730;4.244;2023-10-13T11:12:12;24.80;99.90
27870;DHT22;15225;50.730;4.244;2023-10-13T11:14:43;25.00;99.90
27870;DHT22;15225;50.730;4.244;2023-10-13T11:17:19;25.10;99.90
27870;DHT22;15225;50.730;4.244;2023-10-13T11:19:50;25.10;99.90
27870;DHT22;15225;50.730;4.244;2023-10-13T11:22:25;25.10;99.90
27870;DHT22;15225;50.730;4.244;2023-10-13T11:25:08;25.10;99.90
27870;DHT22;15225;50.730;4.244;2023-10-13T11:27:40;24.90;99.90
27870;DHT22;15225;50.730;4.244;2023-10-13T11:30:11;24.90;99.90
27870;DHT22;15225;50.730;4.244;2023-10-13T11:32:43;24.80;99.90
27870;DHT22;15225;50.730;4.244;2023-10-13T11:35:12;24.70;99.90
27870;DHT22;15225;50.730;4.244;2023-10-13T11:37:47;24.80;99.90
27870;DHT22;15225;50.730;4.244;2023-10-13T11:40:23;24.60;99.90
27870;DHT22;15225;50.730;4.244;2023-10-13T11:43:09;24.60;99.90
27870;DHT22;15225;50.730;4.244;2023-10-13T11:45:47;24.50;99.90
27870;DHT22;15225;50.730;4.244;2023-10-13T11:48:44;24.70;99.90
27870;DHT22;15225;50.730;4.244;2023-10-13T11:51:15;24.90;99.90
27870;DHT22;15225;50.730;4.244;2023-10-13T11:53:49;24.90;99.90
27870;DHT22;15225;50.730;4.244;2023-10-13T11:56:18;25.00;99.90
27870;DHT22;15225;50.730;4.244;2023-10-13T11:58:47;25.20;99.90
27870;DHT22;15225;50.730;4.244;2023-10-13T12:01:13;25.00;99.90
27870;DHT22;15225;50.730;4.244;2023-10-13T12:03:44;25.10;99.90
27870;DHT22;15225;50.730;4.244;2023-10-13T12:06:29;25.30;99.90
27870;DHT22;15225;50.730;4.244;2023-10-13T12:09:12;25.40;99.90
27870;DHT22;15225;50.730;4.244;2023-10-13T12:11:45;25.10;99.90
27870;DHT22;15225;50.730;4.244;2023-10-13T12:14:12;24.80;99.90
27870;DHT22;15225;50.730;4.244;2023-10-13T12:16:55;24.80;99.90
27870;DHT22;15225;50.730;4.244;2023-10-13T12:19:23;24.90;99.90
27870;DHT22;15225;50.730;4.244;2023-10-13T12:21:49;25.00;99.90
27870;DHT22;15225;50.730;4.244;2023-10-13T12:24:15;24.90;99.90
27870;DHT22;15225;50.730;4.244;2023-10-13T12:27:00;25.10;99.90
27870;DHT22;15225;50.730;4.244;2023-10-13T12:29:26;25.00;99.90
27870;DHT22;15225;50.730;4.244;2023-10-13T12:31:56;24.90;99.90
27870;DHT22;15225;50.730;4.244;2023-10-13T12:34:35;24.70;99.90
27870;DHT22;15225;50.730;4.244;2023-10-13T12:37:20;24.80;99.90
27870;DHT22;15225;50.730;4.244;2023-10-13T12:42:53;24.60;99.90
27870;DHT22;15225;50.730;4.244;2023-10-13T12:45:50;24.40;99.90
27870;DHT22;15225;50.730;4.244;2023-10-13T12:48:36;24.40;99.90
27870;DHT22;15225;50.730;4.244;2023-10-13T12:51:20;24.40;99.90
27870;DHT22;15225;50.730;4.244;2023-10-13T12:54:07;24.30;99.90
27870;DHT22;15225;50.730;4.244;2023-10-13T12:57:02;24.10;99.90
27870;DHT22;15225;50.730;4.244;2023-10-13T12:59:28;24.00;99.90
27870;DHT22;15225;50.730;4.244;2023-10-13T13:01:54;24.10;99.90
27870;DHT22;15225;50.730;4.244;2023-10-13T13:04:20;24.20;99.90
27870;DHT22;15225;50.730;4.244;2023-10-13T13:06:47;24.20;99.90
27870;DHT22;15225;50.730;4.244;2023-10-13T13:09:12;24.20;99.90
27870;DHT22;15225;50.730;4.244;2023-10-13T13:11:38;24.00;99.90
27870;DHT22;15225;50.730;4.244;2023-10-13T13:14:08;24.00;99.90
27870;DHT22;15225;50.730;4.244;2023-10-13T13:16:35;24.00;99.90
27870;DHT22;15225;50.730;4.244;2023-10-13T13:19:00;24.20;99.90
27870;DHT22;15225;50.730;4.244;2023-10-13T13:21:36;24.20;99.90
27870;DHT22;15225;50.730;4.244;2023-10-13T13:24:02;24.10;99.90
27870;DHT22;15225;50.730;4.244;2023-10-13T13:26:30;24.10;99.90
27870;DHT22;15225;50.730;4.244;2023-10-13T13:28:56;24.00;99.90
27870;DHT22;15225;50.730;4.244;2023-10-13T13:31:23;23.90;99.90
27870;DHT22;15225;50.730;4.244;2023-10-13T13:33:54;23.90;99.90
27870;DHT22;15225;50.730;4.244;2023-10-13T13:36:21;24.00;99.90
27870;DHT22;15225;50.730;4.244;2023-10-13T13:38:47;24.00;99.90
27870;DHT22;15225;50.730;4.244;2023-10-13T13:41:20;24.10;99.90
27870;DHT22;15225;50.730;4.244;2023-10-13T13:43:48;24.30;99.90
27870;DHT22;15225;50.730;4.244;2023-10-13T13:46:26;24.20;99.90
27870;DHT22;15225;50.730;4.244;2023-10-13T13:48:58;24.20;99.90
27870;DHT22;15225;50.730;4.244;2023-10-13T13:51:28;24.60;99.90
27870;DHT22;15225;50.730;4.244;2023-10-13T13:53:57;24.90;99.90
27870;DHT22;15225;50.730;4.244;2023-10-13T13:56:24;24.80;99.90
27870;DHT22;15225;50.730;4.244;2023-10-13T13:58:54;25.00;99.90
27870;DHT22;15225;50.730;4.244;2023-10-13T14:01:22;24.80;99.90
27870;DHT22;15225;50.730;4.244;2023-10-13T14:03:51;24.70;99.90
27870;DHT22;15225;50.730;4.244;2023-10-13T14:06:19;24.50;99.90
27870;DHT22;15225;50.730;4.244;2023-10-13T14:08:58;24.50;99.90
27870;DHT22;15225;50.730;4.244;2023-10-13T14:11:41;24.50;99.90
27870;DHT22;15225;50.730;4.244;2023-10-13T14:14:25;24.60;99.90
27870;DHT22;15225;50.730;4.244;2023-10-13T14:16:51;24.50;99.90
27870;DHT22;15225;50.730;4.244;2023-10-13T14:19:17;24.70;99.90
27870;DHT22;15225;50.730;4.244;2023-10-13T14:22:01;24.80;99.90
27870;DHT22;15225;50.730;4.244;2023-10-13T14:24:35;24.60;99.90
27870;DHT22;15225;50.730;4.244;2023-10-13T14:27:02;24.50;99.90
27870;DHT22;15225;50.730;4.244;2023-10-13T14:29:44;24.30;99.90
27870;DHT22;15225;50.730;4.244;2023-10-13T14:32:11;24.30;99.90
27870;DHT22;15225;50.730;4.244;2023-10-13T14:34:42;24.20;99.90
27870;DHT22;15225;50.730;4.244;2023-10-13T14:37:10;24.20;99.90
27870;DHT22;15225;50.730;4.244;2023-10-13T14:39:42;24.30;99.90
27870;DHT22;15225;50.730;4.244;2023-10-13T14:42:08;24.00;99.90
27870;DHT22;15225;50.730;4.244;2023-10-13T14:44:34;24.00;99.90
27870;DHT22;15225;50.730;4.244;2023-10-13T14:47:00;23.90;99.90
27870;DHT22;15225;50.730;4.244;2023-10-13T14:49:26;23.80;99.90
27870;DHT22;15225;50.730;4.244;2023-10-13T14:51:52;23.90;99.90
27870;DHT22;15225;50.730;4.244;2023-10-13T14:54:21;23.90;99.90
27870;DHT22;15225;50.730;4.244;2023-10-13T14:56:59;23.80;99.90
27870;DHT22;15225;50.730;4.244;2023-10-13T14:59:24;23.60;99.90
27870;DHT22;15225;50.730;4.244;2023-10-13T15:01:50;23.50;99.90
27870;DHT22;15225;50.730;4.244;2023-10-13T15:04:16;23.40;99.90
27870;DHT22;15225;50.730;4.244;2023-10-13T15:06:42;23.40;99.90
27870;DHT22;15225;50.730;4.244;2023-10-13T15:09:09;23.50;99.90
27870;DHT22;15225;50.730;4.244;2023-10-13T15:11:36;23.40;99.90
27870;DHT22;15225;50.730;4.244;2023-10-13T15:14:03;23.40;99.90
27870;DHT22;15225;50.730;4.244;2023-10-13T15:16:32;23.40;99.90
27870;DHT22;15225;50.730;4.244;2023-10-13T15:18:59;23.30;99.90
27870;DHT22;15225;50.730;4.244;2023-10-13T15:21:27;23.20;99.90
27870;DHT22;15225;50.730;4.244;2023-10-13T15:24:05;23.20;99.90
27870;DHT22;15225;50.730;4.244;2023-10-13T15:26:42;23.20;99.90
27870;DHT22;15225;50.730;4.244;2023-10-13T15:29:16;23.00;99.90
27870;DHT22;15225;50.730;4.244;2023-10-13T15:31:43;23.10;1.00
27870;DHT22;15225;50.730;4.244;2023-10-13T15:34:29;23.00;1.00
27870;DHT22;15225;50.730;4.244;2023-10-13T15:36:57;23.10;1.00
27870;DHT22;15225;50.730;4.244;2023-10-13T15:39:23;23.10;1.00
27870;DHT22;15225;50.730;4.244;2023-10-13T15:41:50;23.00;1.00
27870;DHT22;15225;50.730;4.244;2023-10-13T15:44:22;22.90;1.00
27870;DHT22;15225;50.730;4.244;2023-10-13T15:46:54;22.90;1.00
27870;DHT22;15225;50.730;4.244;2023-10-13T15:49:21;22.60;54.40
27870;DHT22;15225;50.730;4.244;2023-10-13T15:51:47;22.60;72.20
27870;DHT22;15225;50.730;4.244;2023-10-13T15:54:13;22.60;99.90
27870;DHT22;15225;50.730;4.244;2023-10-13T15:56:47;22.60;99.90
27870;DHT22;15225;50.730;4.244;2023-10-13T15:59:14;22.70;63.90
27870;DHT22;15225;50.730;4.244;2023-10-13T16:01:40;22.70;46.30
27870;DHT22;15225;50.730;4.244;2023-10-13T16:04:07;22.90;1.00
27870;DHT22;15225;50.730;4.244;2023-10-13T16:06:45;22.80;1.00
27870;DHT22;15225;50.730;4.244;2023-10-13T16:09:19;22.60;48.70
27870;DHT22;15225;50.730;4.244;2023-10-13T16:11:49;22.60;99.90
27870;DHT22;15225;50.730;4.244;2023-10-13T16:14:15;22.30;99.90
27870;DHT22;15225;50.730;4.244;2023-10-13T16:16:45;22.10;99.90
27870;DHT22;15225;50.730;4.244;2023-10-13T16:19:16;21.80;99.90
27870;DHT22;15225;50.730;4.244;2023-10-13T16:21:49;21.60;99.90
27870;DHT22;15225;50.730;4.244;2023-10-13T16:24:15;21.60;99.90
27870;DHT22;15225;50.730;4.244;2023-10-13T16:26:50;21.50;99.90
27870;DHT22;15225;50.730;4.244;2023-10-13T16:29:21;21.50;1.00
27870;DHT22;15225;50.730;4.244;2023-10-13T16:31:47;21.50;99.90
27870;DHT22;15225;50.730;4.244;2023-10-13T16:34:17;21.60;99.90